sensor_id;sensor_type;location;lat;lon;timestamp;P1;durP1;ratioP1;P2;durP2;ratioP2
12359;SDS011;6244;51.460;7.090;2023-02-28T00:00:02;10.18;;;7.18;;
12359;SDS011;6244;51.460;7.090;2023-02-28T00:05:07;9.40;;;5.90;;
12359;SDS011;6244;51.460;7.090;2023-02-28T00:10:06;7.88;;;5.47;;
12359;SDS011;6244;51.460;7.090;2023-02-28T00:15:06;7.28;;;5.38;;
12359;SDS011;6244;51.460;7.090;2023-02-28T00:20:04;9.32;;;4.43;;
12359;SDS011;6244;51.460;7.090;2023-02-28T00:25:05;6.70;;;4.35;;
12359;SDS011;6244;51.460;7.090;2023-02-28T00:30:03;5.82;;;4.68;;
12359;SDS011;6244;51.460;7.090;2023-02-28T00:35:01;7.88;;;4.32;;
12359;SDS011;6244;51.460;7.090;2023-02-28T00:39:58;8.45;;;4.90;;
12359;SDS011;6244;51.460;7.090;2023-02-28T00:44:55;6.25;;;4.30;;
12359;SDS011;6244;51.460;7.090;2023-02-28T00:49:52;6.35;;;4.78;;
12359;SDS011;6244;51.460;7.090;2023-02-28T00:54:48;7.45;;;5.10;;
12359;SDS011;6244;51.460;7.090;2023-02-28T00:59:45;8.48;;;5.22;;
12359;SDS011;6244;51.460;7.090;2023-02-28T01:04:43;8.52;;;5.75;;
12359;SDS011;6244;51.460;7.090;2023-02-28T01:09:39;7.25;;;5.25;;
12359;SDS011;6244;51.460;7.090;2023-02-28T01:14:36;9.30;;;6.25;;
12359;SDS011;6244;51.460;7.090;2023-02-28T01:19:33;9.30;;;6.45;;
12359;SDS011;6244;51.460;7.090;2023-02-28T01:24:31;12.20;;;7.00;;
12359;SDS011;6244;51.460;7.090;2023-02-28T01:29:29;8.13;;;5.90;;
12359;SDS011;6244;51.460;7.090;2023-02-28T01:34:25;9.18;;;5.90;;
12359;SDS011;6244;51.460;7.090;2023-02-28T01:39:22;7.22;;;6.22;;
12359;SDS011;6244;51.460;7.090;2023-02-28T01:49:53;7.80;;;4.97;;
12359;SDS011;6244;51.460;7.090;2023-02-28T01:54:51;7.00;;;5.30;;
12359;SDS011;6244;51.460;7.090;2023-02-28T01:59:52;9.02;;;6.00;;
12359;SDS011;6244;51.460;7.090;2023-02-28T02:04:55;7.43;;;5.28;;
12359;SDS011;6244;51.460;7.090;2023-02-28T02:09:59;7.15;;;4.88;;
12359;SDS011;6244;51.460;7.090;2023-02-28T02:15:00;7.03;;;5.03;;
12359;SDS011;6244;51.460;7.090;2023-02-28T02:20:27;6.82;;;4.80;;
12359;SDS011;6244;51.460;7.090;2023-02-28T02:25:42;9.80;;;5.18;;
12359;SDS011;6244;51.460;7.090;2023-02-28T02:30:51;7.78;;;4.80;;
12359;SDS011;6244;51.460;7.090;2023-02-28T02:36:03;9.10;;;4.63;;
12359;SDS011;6244;51.460;7.090;2023-02-28T02:41:06;8.45;;;5.72;;
12359;SDS011;6244;51.460;7.090;2023-02-28T02:46:08;10.50;;;6.18;;
12359;SDS011;6244;51.460;7.090;2023-02-28T02:51:12;7.70;;;4.63;;
12359;SDS011;6244;51.460;7.090;2023-02-28T02:56:10;8.32;;;5.35;;
12359;SDS011;6244;51.460;7.090;2023-02-28T03:01:10;9.35;;;5.10;;
12359;SDS011;6244;51.460;7.090;2023-02-28T03:06:08;8.52;;;4.80;;
12359;SDS011;6244;51.460;7.090;2023-02-28T03:11:06;9.77;;;5.22;;
12359;SDS011;6244;51.460;7.090;2023-02-28T03:16:16;6.95;;;4.97;;
12359;SDS011;6244;51.460;7.090;2023-02-28T03:21:40;7.75;;;4.50;;
12359;SDS011;6244;51.460;7.090;2023-02-28T03:26:45;6.85;;;4.60;;
12359;SDS011;6244;51.460;7.090;2023-02-28T03:31:49;6.60;;;4.43;;
12359;SDS011;6244;51.460;7.090;2023-02-28T03:36:51;7.22;;;5.22;;
12359;SDS011;6244;51.460;7.090;2023-02-28T03:41:54;5.80;;;4.00;;
12359;SDS011;6244;51.460;7.090;2023-02-28T03:46:56;6.57;;;4.63;;
12359;SDS011;6244;51.460;7.090;2023-02-28T03:51:56;6.80;;;4.43;;
12359;SDS011;6244;51.460;7.090;2023-02-28T03:56:59;13.45;;;4.55;;
12359;SDS011;6244;51.460;7.090;2023-02-28T04:02:01;6.78;;;4.50;;
12359;SDS011;6244;51.460;7.090;2023-02-28T04:07:01;7.53;;;4.95;;
12359;SDS011;6244;51.460;7.090;2023-02-28T04:12:00;6.97;;;5.00;;
12359;SDS011;6244;51.460;7.090;2023-02-28T04:16:57;6.43;;;4.50;;
12359;SDS011;6244;51.460;7.090;2023-02-28T04:21:53;8.38;;;4.78;;
12359;SDS011;6244;51.460;7.090;2023-02-28T04:26:51;7.40;;;5.20;;
12359;SDS011;6244;51.460;7.090;2023-02-28T04:31:50;6.88;;;4.53;;
12359;SDS011;6244;51.460;7.090;2023-02-28T04:36:48;9.70;;;4.93;;
12359;SDS011;6244;51.460;7.090;2023-02-28T04:41:45;9.27;;;5.18;;
12359;SDS011;6244;51.460;7.090;2023-02-28T04:46:42;9.35;;;4.53;;
12359;SDS011;6244;51.460;7.090;2023-02-28T04:51:41;12.70;;;6.15;;
12359;SDS011;6244;51.460;7.090;2023-02-28T04:56:37;7.03;;;5.00;;
12359;SDS011;6244;51.460;7.090;2023-02-28T05:01:34;6.53;;;4.47;;
12359;SDS011;6244;51.460;7.090;2023-02-28T05:06:32;7.32;;;4.22;;
12359;SDS011;6244;51.460;7.090;2023-02-28T05:11:31;7.85;;;4.75;;
12359;SDS011;6244;51.460;7.090;2023-02-28T05:16:30;9.05;;;5.03;;
12359;SDS011;6244;51.460;7.090;2023-02-28T05:21:28;7.43;;;5.25;;
12359;SDS011;6244;51.460;7.090;2023-02-28T05:26:26;7.97;;;4.65;;
12359;SDS011;6244;51.460;7.090;2023-02-28T05:31:24;12.90;;;5.38;;
12359;SDS011;6244;51.460;7.090;2023-02-28T05:36:21;6.45;;;4.20;;
12359;SDS011;6244;51.460;7.090;2023-02-28T05:41:18;7.60;;;4.97;;
12359;SDS011;6244;51.460;7.090;2023-02-28T05:46:15;6.28;;;4.75;;
12359;SDS011;6244;51.460;7.090;2023-02-28T05:51:13;6.93;;;4.72;;
12359;SDS011;6244;51.460;7.090;2023-02-28T05:56:10;10.63;;;5.28;;
12359;SDS011;6244;51.460;7.090;2023-02-28T06:01:20;9.05;;;5.60;;
12359;SDS011;6244;51.460;7.090;2023-02-28T06:06:23;9.70;;;5.85;;
12359;SDS011;6244;51.460;7.090;2023-02-28T06:11:20;10.18;;;5.57;;
12359;SDS011;6244;51.460;7.090;2023-02-28T06:16:21;9.18;;;5.55;;
12359;SDS011;6244;51.460;7.090;2023-02-28T06:21:18;9.07;;;4.90;;
12359;SDS011;6244;51.460;7.090;2023-02-28T06:26:16;9.05;;;5.60;;
12359;SDS011;6244;51.460;7.090;2023-02-28T06:31:13;10.65;;;6.30;;
12359;SDS011;6244;51.460;7.090;2023-02-28T06:36:12;11.40;;;6.22;;
12359;SDS011;6244;51.460;7.090;2023-02-28T06:41:10;10.32;;;5.75;;
12359;SDS011;6244;51.460;7.090;2023-02-28T06:46:10;10.52;;;6.10;;
12359;SDS011;6244;51.460;7.090;2023-02-28T06:51:09;12.68;;;5.32;;
12359;SDS011;6244;51.460;7.090;2023-02-28T06:56:07;10.02;;;5.32;;
12359;SDS011;6244;51.460;7.090;2023-02-28T07:01:05;8.50;;;5.03;;
12359;SDS011;6244;51.460;7.090;2023-02-28T07:06:04;11.02;;;5.50;;
12359;SDS011;6244;51.460;7.090;2023-02-28T07:11:01;6.88;;;5.28;;
12359;SDS011;6244;51.460;7.090;2023-02-28T07:15:59;11.85;;;5.13;;
12359;SDS011;6244;51.460;7.090;2023-02-28T07:20:57;10.73;;;6.55;;
12359;SDS011;6244;51.460;7.090;2023-02-28T07:25:55;6.60;;;5.00;;
12359;SDS011;6244;51.460;7.090;2023-02-28T07:30:51;7.75;;;5.50;;
12359;SDS011;6244;51.460;7.090;2023-02-28T07:35:48;7.25;;;5.38;;
12359;SDS011;6244;51.460;7.090;2023-02-28T07:40:44;7.00;;;5.13;;
12359;SDS011;6244;51.460;7.090;2023-02-28T07:45:42;7.85;;;5.90;;
12359;SDS011;6244;51.460;7.090;2023-02-28T07:50:39;10.13;;;5.60;;
12359;SDS011;6244;51.460;7.090;2023-02-28T07:55:35;7.22;;;5.60;;
12359;SDS011;6244;51.460;7.090;2023-02-28T08:00:32;7.28;;;5.80;;
12359;SDS011;6244;51.460;7.090;2023-02-28T08:05:29;6.90;;;4.85;;
12359;SDS011;6244;51.460;7.090;2023-02-28T08:10:26;7.15;;;5.60;;
12359;SDS011;6244;51.460;7.090;2023-02-28T08:15:23;9.82;;;5.90;;
12359;SDS011;6244;51.460;7.090;2023-02-28T08:20:19;9.98;;;5.93;;
12359;SDS011;6244;51.460;7.090;2023-02-28T08:25:17;11.65;;;6.22;;
12359;SDS011;6244;51.460;7.090;2023-02-28T08:30:14;9.27;;;6.43;;
12359;SDS011;6244;51.460;7.090;2023-02-28T08:35:12;12.52;;;5.88;;
12359;SDS011;6244;51.460;7.090;2023-02-28T08:40:09;8.68;;;4.88;;
12359;SDS011;6244;51.460;7.090;2023-02-28T08:45:10;8.43;;;5.18;;
12359;SDS011;6244;51.460;7.090;2023-02-28T08:50:07;7.38;;;4.40;;
12359;SDS011;6244;51.460;7.090;2023-02-28T08:55:04;6.90;;;4.78;;
12359;SDS011;6244;51.460;7.090;2023-02-28T09:00:02;6.30;;;4.00;;
12359;SDS011;6244;51.460;7.090;2023-02-28T09:05:01;6.05;;;4.05;;
12359;SDS011;6244;51.460;7.090;2023-02-28T09:09:58;6.57;;;4.20;;
12359;SDS011;6244;51.460;7.090;2023-02-28T09:14:54;5.38;;;3.50;;
12359;SDS011;6244;51.460;7.090;2023-02-28T09:19:51;6.43;;;3.50;;
12359;SDS011;6244;51.460;7.090;2023-02-28T09:24:48;7.00;;;4.13;;
12359;SDS011;6244;51.460;7.090;2023-02-28T09:29:45;7.00;;;3.55;;
12359;SDS011;6244;51.460;7.090;2023-02-28T09:34:41;4.20;;;2.88;;
12359;SDS011;6244;51.460;7.090;2023-02-28T09:39:38;5.03;;;3.25;;
12359;SDS011;6244;51.460;7.090;2023-02-28T09:44:36;5.25;;;3.17;;
12359;SDS011;6244;51.460;7.090;2023-02-28T09:49:37;3.67;;;2.72;;
12359;SDS011;6244;51.460;7.090;2023-02-28T09:54:36;5.55;;;3.10;;
12359;SDS011;6244;51.460;7.090;2023-02-28T09:59:39;3.63;;;2.65;;
12359;SDS011;6244;51.460;7.090;2023-02-28T10:04:42;4.00;;;2.88;;
12359;SDS011;6244;51.460;7.090;2023-02-28T10:09:47;3.85;;;2.83;;
12359;SDS011;6244;51.460;7.090;2023-02-28T10:14:50;6.47;;;3.37;;
12359;SDS011;6244;51.460;7.090;2023-02-28T10:19:50;5.38;;;3.08;;
12359;SDS011;6244;51.460;7.090;2023-02-28T10:24:55;5.50;;;3.40;;
12359;SDS011;6244;51.460;7.090;2023-02-28T10:30:00;3.22;;;2.70;;
12359;SDS011;6244;51.460;7.090;2023-02-28T10:34:59;4.05;;;3.00;;
12359;SDS011;6244;51.460;7.090;2023-02-28T10:39:57;4.32;;;2.75;;
12359;SDS011;6244;51.460;7.090;2023-02-28T10:45:09;5.93;;;2.90;;
12359;SDS011;6244;51.460;7.090;2023-02-28T10:55:24;3.67;;;2.72;;
12359;SDS011;6244;51.460;7.090;2023-02-28T11:00:23;4.20;;;2.97;;
12359;SDS011;6244;51.460;7.090;2023-02-28T11:05:25;4.63;;;3.15;;
12359;SDS011;6244;51.460;7.090;2023-02-28T11:10:25;4.10;;;2.83;;
12359;SDS011;6244;51.460;7.090;2023-02-28T11:15:29;4.15;;;2.72;;
12359;SDS011;6244;51.460;7.090;2023-02-28T11:20:28;3.78;;;2.88;;
12359;SDS011;6244;51.460;7.090;2023-02-28T11:25:26;3.53;;;2.80;;
12359;SDS011;6244;51.460;7.090;2023-02-28T11:30:27;3.55;;;2.80;;
12359;SDS011;6244;51.460;7.090;2023-02-28T11:35:28;3.92;;;2.90;;
12359;SDS011;6244;51.460;7.090;2023-02-28T11:40:31;4.05;;;2.90;;
12359;SDS011;6244;51.460;7.090;2023-02-28T11:45:42;5.30;;;2.85;;
12359;SDS011;6244;51.460;7.090;2023-02-28T11:50:47;7.45;;;3.33;;
12359;SDS011;6244;51.460;7.090;2023-02-28T11:55:51;4.25;;;3.13;;
12359;SDS011;6244;51.460;7.090;2023-02-28T12:01:00;4.25;;;3.30;;
12359;SDS011;6244;51.460;7.090;2023-02-28T12:06:13;3.75;;;2.90;;
12359;SDS011;6244;51.460;7.090;2023-02-28T12:11:16;3.65;;;3.00;;
12359;SDS011;6244;51.460;7.090;2023-02-28T12:16:36;4.35;;;2.92;;
12359;SDS011;6244;51.460;7.090;2023-02-28T12:21:44;3.92;;;2.85;;
12359;SDS011;6244;51.460;7.090;2023-02-28T12:26:52;4.38;;;3.00;;
12359;SDS011;6244;51.460;7.090;2023-02-28T12:31:53;4.03;;;3.17;;
12359;SDS011;6244;51.460;7.090;2023-02-28T12:36:52;6.22;;;3.20;;
12359;SDS011;6244;51.460;7.090;2023-02-28T12:41:53;3.83;;;3.20;;
12359;SDS011;6244;51.460;7.090;2023-02-28T12:46:56;5.15;;;3.55;;
12359;SDS011;6244;51.460;7.090;2023-02-28T12:51:56;5.65;;;3.92;;
12359;SDS011;6244;51.460;7.090;2023-02-28T12:56:56;4.55;;;3.50;;
12359;SDS011;6244;51.460;7.090;2023-02-28T13:02:04;5.68;;;3.67;;
12359;SDS011;6244;51.460;7.090;2023-02-28T13:07:22;7.18;;;4.10;;
12359;SDS011;6244;51.460;7.090;2023-02-28T13:12:48;6.45;;;3.80;;
12359;SDS011;6244;51.460;7.090;2023-02-28T13:17:48;5.25;;;4.40;;
12359;SDS011;6244;51.460;7.090;2023-02-28T13:22:46;4.95;;;3.80;;
12359;SDS011;6244;51.460;7.090;2023-02-28T13:27:44;5.63;;;3.92;;
12359;SDS011;6244;51.460;7.090;2023-02-28T13:32:42;6.63;;;4.60;;
12359;SDS011;6244;51.460;7.090;2023-02-28T13:37:43;7.72;;;4.65;;
12359;SDS011;6244;51.460;7.090;2023-02-28T13:42:46;5.88;;;4.45;;
12359;SDS011;6244;51.460;7.090;2023-02-28T13:47:45;6.07;;;4.55;;
12359;SDS011;6244;51.460;7.090;2023-02-28T13:58:35;5.43;;;4.82;;
12359;SDS011;6244;51.460;7.090;2023-02-28T14:03:48;6.53;;;5.18;;
12359;SDS011;6244;51.460;7.090;2023-02-28T14:09:17;7.07;;;4.82;;
12359;SDS011;6244;51.460;7.090;2023-02-28T14:19:55;5.65;;;4.38;;
12359;SDS011;6244;51.460;7.090;2023-02-28T14:25:08;6.82;;;4.63;;
12359;SDS011;6244;51.460;7.090;2023-02-28T14:30:25;5.78;;;4.40;;
12359;SDS011;6244;51.460;7.090;2023-02-28T14:36:01;6.32;;;5.15;;
12359;SDS011;6244;51.460;7.090;2023-02-28T14:46:02;5.63;;;4.90;;
12359;SDS011;6244;51.460;7.090;2023-02-28T14:51:02;6.35;;;4.90;;
12359;SDS011;6244;51.460;7.090;2023-02-28T14:55:58;7.82;;;4.65;;
12359;SDS011;6244;51.460;7.090;2023-02-28T15:00:57;7.28;;;4.63;;
12359;SDS011;6244;51.460;7.090;2023-02-28T15:05:55;7.05;;;5.15;;
12359;SDS011;6244;51.460;7.090;2023-02-28T15:10:54;7.95;;;5.20;;
12359;SDS011;6244;51.460;7.090;2023-02-28T15:15:54;6.28;;;4.90;;
12359;SDS011;6244;51.460;7.090;2023-02-28T15:20:54;5.90;;;4.85;;
12359;SDS011;6244;51.460;7.090;2023-02-28T15:25:52;6.93;;;4.55;;
12359;SDS011;6244;51.460;7.090;2023-02-28T15:30:51;7.32;;;4.88;;
12359;SDS011;6244;51.460;7.090;2023-02-28T15:35:51;7.38;;;5.25;;
12359;SDS011;6244;51.460;7.090;2023-02-28T15:40:59;5.43;;;4.53;;
12359;SDS011;6244;51.460;7.090;2023-02-28T15:45:56;6.35;;;4.90;;
12359;SDS011;6244;51.460;7.090;2023-02-28T15:50:57;6.47;;;5.10;;
12359;SDS011;6244;51.460;7.090;2023-02-28T15:55:59;6.57;;;5.05;;
12359;SDS011;6244;51.460;7.090;2023-02-28T16:01:08;8.73;;;5.10;;
12359;SDS011;6244;51.460;7.090;2023-02-28T16:06:38;6.80;;;5.25;;
12359;SDS011;6244;51.460;7.090;2023-02-28T16:11:38;7.05;;;5.18;;
12359;SDS011;6244;51.460;7.090;2023-02-28T16:16:41;7.50;;;5.13;;
12359;SDS011;6244;51.460;7.090;2023-02-28T16:21:40;6.03;;;5.22;;
12359;SDS011;6244;51.460;7.090;2023-02-28T16:26:36;6.45;;;5.43;;
12359;SDS011;6244;51.460;7.090;2023-02-28T16:31:36;8.98;;;6.15;;
12359;SDS011;6244;51.460;7.090;2023-02-28T16:36:33;6.70;;;5.22;;
12359;SDS011;6244;51.460;7.090;2023-02-28T16:41:31;9.15;;;5.93;;
12359;SDS011;6244;51.460;7.090;2023-02-28T16:46:31;8.30;;;5.15;;
12359;SDS011;6244;51.460;7.090;2023-02-28T16:51:30;7.60;;;5.18;;
12359;SDS011;6244;51.460;7.090;2023-02-28T16:56:26;8.75;;;5.30;;
12359;SDS011;6244;51.460;7.090;2023-02-28T17:01:24;5.88;;;5.25;;
12359;SDS011;6244;51.460;7.090;2023-02-28T17:06:22;6.53;;;4.90;;
12359;SDS011;6244;51.460;7.090;2023-02-28T17:11:23;7.50;;;5.18;;
12359;SDS011;6244;51.460;7.090;2023-02-28T17:26:31;6.18;;;4.80;;
12359;SDS011;6244;51.460;7.090;2023-02-28T17:31:28;6.40;;;5.15;;
12359;SDS011;6244;51.460;7.090;2023-02-28T17:36:26;7.55;;;5.50;;
12359;SDS011;6244;51.460;7.090;2023-02-28T17:41:23;8.30;;;5.88;;
12359;SDS011;6244;51.460;7.090;2023-02-28T17:46:23;8.90;;;6.28;;
12359;SDS011;6244;51.460;7.090;2023-02-28T17:51:21;9.60;;;6.40;;
12359;SDS011;6244;51.460;7.090;2023-02-28T17:56:19;8.07;;;6.78;;
12359;SDS011;6244;51.460;7.090;2023-02-28T18:01:18;12.57;;;5.95;;
12359;SDS011;6244;51.460;7.090;2023-02-28T18:06:17;7.38;;;5.85;;
12359;SDS011;6244;51.460;7.090;2023-02-28T18:11:17;11.73;;;7.18;;
12359;SDS011;6244;51.460;7.090;2023-02-28T18:16:14;12.20;;;8.48;;
12359;SDS011;6244;51.460;7.090;2023-02-28T18:21:11;11.90;;;7.63;;
12359;SDS011;6244;51.460;7.090;2023-02-28T18:26:11;9.05;;;6.95;;
12359;SDS011;6244;51.460;7.090;2023-02-28T18:31:08;12.20;;;7.10;;
12359;SDS011;6244;51.460;7.090;2023-02-28T18:36:07;10.75;;;6.80;;
12359;SDS011;6244;51.460;7.090;2023-02-28T18:41:04;10.45;;;7.28;;
12359;SDS011;6244;51.460;7.090;2023-02-28T18:46:04;11.55;;;7.22;;
12359;SDS011;6244;51.460;7.090;2023-02-28T18:51:05;10.93;;;6.78;;
12359;SDS011;6244;51.460;7.090;2023-02-28T18:56:03;9.68;;;6.05;;
12359;SDS011;6244;51.460;7.090;2023-02-28T19:01:01;12.10;;;7.40;;
12359;SDS011;6244;51.460;7.090;2023-02-28T19:06:00;11.68;;;6.97;;
12359;SDS011;6244;51.460;7.090;2023-02-28T19:10:57;10.18;;;7.82;;
12359;SDS011;6244;51.460;7.090;2023-02-28T19:15:59;14.02;;;10.73;;
12359;SDS011;6244;51.460;7.090;2023-02-28T19:20:56;16.00;;;10.90;;
12359;SDS011;6244;51.460;7.090;2023-02-28T19:25:54;16.40;;;11.80;;
12359;SDS011;6244;51.460;7.090;2023-02-28T19:30:51;15.48;;;12.27;;
12359;SDS011;6244;51.460;7.090;2023-02-28T19:35:48;17.48;;;11.70;;
12359;SDS011;6244;51.460;7.090;2023-02-28T19:40:45;18.85;;;11.35;;
12359;SDS011;6244;51.460;7.090;2023-02-28T19:45:42;15.15;;;9.65;;
12359;SDS011;6244;51.460;7.090;2023-02-28T19:50:39;14.45;;;9.82;;
12359;SDS011;6244;51.460;7.090;2023-02-28T19:55:37;14.25;;;9.65;;
12359;SDS011;6244;51.460;7.090;2023-02-28T20:00:33;15.15;;;9.65;;
12359;SDS011;6244;51.460;7.090;2023-02-28T20:05:31;11.80;;;8.18;;
12359;SDS011;6244;51.460;7.090;2023-02-28T20:10:28;13.93;;;9.13;;
12359;SDS011;6244;51.460;7.090;2023-02-28T20:15:24;13.13;;;9.32;;
12359;SDS011;6244;51.460;7.090;2023-02-28T20:20:21;12.25;;;8.45;;
12359;SDS011;6244;51.460;7.090;2023-02-28T20:25:19;16.08;;;9.98;;
12359;SDS011;6244;51.460;7.090;2023-02-28T20:30:16;12.20;;;9.88;;
12359;SDS011;6244;51.460;7.090;2023-02-28T20:35:16;14.93;;;10.00;;
12359;SDS011;6244;51.460;7.090;2023-02-28T20:40:12;15.43;;;9.98;;
12359;SDS011;6244;51.460;7.090;2023-02-28T20:45:11;14.68;;;9.57;;
12359;SDS011;6244;51.460;7.090;2023-02-28T20:50:08;14.18;;;10.40;;
12359;SDS011;6244;51.460;7.090;2023-02-28T20:55:05;14.48;;;10.82;;
12359;SDS011;6244;51.460;7.090;2023-02-28T21:00:03;15.32;;;11.23;;
12359;SDS011;6244;51.460;7.090;2023-02-28T21:05:04;15.95;;;10.98;;
12359;SDS011;6244;51.460;7.090;2023-02-28T21:10:01;13.20;;;9.75;;
12359;SDS011;6244;51.460;7.090;2023-02-28T21:14:58;15.35;;;9.77;;
12359;SDS011;6244;51.460;7.090;2023-02-28T21:19:55;13.70;;;9.77;;
12359;SDS011;6244;51.460;7.090;2023-02-28T21:24:53;16.70;;;10.73;;
12359;SDS011;6244;51.460;7.090;2023-02-28T21:29:49;14.48;;;10.95;;
12359;SDS011;6244;51.460;7.090;2023-02-28T21:34:46;18.48;;;11.23;;
12359;SDS011;6244;51.460;7.090;2023-02-28T21:39:42;15.52;;;10.85;;
12359;SDS011;6244;51.460;7.090;2023-02-28T21:44:41;17.05;;;11.48;;
12359;SDS011;6244;51.460;7.090;2023-02-28T21:49:38;17.25;;;10.55;;
12359;SDS011;6244;51.460;7.090;2023-02-28T21:54:35;13.23;;;9.55;;
12359;SDS011;6244;51.460;7.090;2023-02-28T21:59:32;13.43;;;9.93;;
12359;SDS011;6244;51.460;7.090;2023-02-28T22:04:30;15.73;;;10.77;;
12359;SDS011;6244;51.460;7.090;2023-02-28T22:09:26;16.58;;;9.88;;
12359;SDS011;6244;51.460;7.090;2023-02-28T22:14:23;14.00;;;10.70;;
12359;SDS011;6244;51.460;7.090;2023-02-28T22:19:20;16.90;;;11.02;;
12359;SDS011;6244;51.460;7.090;2023-02-28T22:24:18;15.77;;;11.10;;
12359;SDS011;6244;51.460;7.090;2023-02-28T22:29:18;16.50;;;12.98;;
12359;SDS011;6244;51.460;7.090;2023-02-28T22:34:15;20.35;;;12.38;;
12359;SDS011;6244;51.460;7.090;2023-02-28T22:39:11;15.02;;;10.70;;
12359;SDS011;6244;51.460;7.090;2023-02-28T22:44:10;13.07;;;9.75;;
12359;SDS011;6244;51.460;7.090;2023-02-28T22:49:07;12.25;;;10.45;;
12359;SDS011;6244;51.460;7.090;2023-02-28T22:54:03;13.82;;;9.98;;
12359;SDS011;6244;51.460;7.090;2023-02-28T22:59:00;13.63;;;10.43;;
12359;SDS011;6244;51.460;7.090;2023-02-28T23:03:59;12.60;;;9.73;;
12359;SDS011;6244;51.460;7.090;2023-02-28T23:08:57;11.23;;;9.43;;
12359;SDS011;6244;51.460;7.090;2023-02-28T23:13:55;14.45;;;9.50;;
12359;SDS011;6244;51.460;7.090;2023-02-28T23:18:55;14.13;;;9.65;;
12359;SDS011;6244;51.460;7.090;2023-02-28T23:23:56;13.93;;;9.38;;
12359;SDS011;6244;51.460;7.090;2023-02-28T23:28:53;15.18;;;10.55;;
12359;SDS011;6244;51.460;7.090;2023-02-28T23:33:50;17.65;;;10.75;;
12359;SDS011;6244;51.460;7.090;2023-02-28T23:38:50;15.80;;;10.77;;
12359;SDS011;6244;51.460;7.090;2023-02-28T23:43:48;20.48;;;11.52;;
12359;SDS011;6244;51.460;7.090;2023-02-28T23:48:46;14.48;;;10.70;;
12359;SDS011;6244;51.460;7.090;2023-02-28T23:53:44;16.80;;;10.40;;
12359;SDS011;6244;51.460;7.090;2023-02-28T23:58:42;18.85;;;12.38;;
